Weather reports worldwide

Advertisment
Latacunga, Ecuador (84123): temperature & dewpoint: 17.03.2019 04:00:00 - 23.03.2019 04:00:00 (ECT)Latacunga, Ecuador (84123): wind speed: 17.03.2019 04:00:00 - 23.03.2019 04:00:00 (ECT)Latacunga, Ecuador (84123): wind direction: 17.03.2019 04:00:00 - 23.03.2019 04:00:00 (ECT)Latacunga, Ecuador (84123): visibility: 17.03.2019 04:00:00 - 23.03.2019 04:00:00 (ECT)Latacunga, Ecuador (84123): precipitation: 17.03.2019 04:00:00 - 23.03.2019 04:00:00 (ECT)
Date & Time tt [°C] td [°C] ff [km/h] ff [kn] dd vv [km] rr [mm]
23.03.2019 04:00:00 8,0 8,0 4 2 S 10 -
23.03.2019 03:00:00 8,0 8,0 4 2 E 10 -
23.03.2019 02:00:00 7,0 7,0 4 2 NW 10 -
23.03.2019 01:00:00 7,0 7,0 4 2 WNW 10 -
23.03.2019 00:00:00 8,0 7,0 5 3 NW 10 -
22.03.2019 23:00:00 8,0 7,0 5 3 WNW 10 -
22.03.2019 22:00:00 8,0 7,0 4 2 NW 10 -
22.03.2019 21:00:00 8,0 8,0 5 3 N 10 -
22.03.2019 20:00:00 9,0 8,0 4 2 NNE 10 -
22.03.2019 19:00:00 9,0 9,0 4 2 N 10 -
22.03.2019 18:00:00 11,0 9,0 2 1 NNW 10 -
22.03.2019 17:00:00 11,0 10,0 4 2 SSE 10 -
22.03.2019 16:00:00 11,0 9,0 11 6 S 10 -
22.03.2019 15:00:00 12,0 9,0 9 5 SE 8 -
22.03.2019 14:00:00 13,0 8,0 21 11 S 10 -
22.03.2019 13:00:00 13,2 7,9 18 10 S 10 -
22.03.2019 12:00:00 14,0 8,0 9 5 S 10 -
22.03.2019 11:00:00 12,0 8,0 9 5 S 10 -
22.03.2019 10:00:00 12,0 8,0 4 2 SSE 10 -
22.03.2019 09:00:00 10,0 8,0 5 3 S 10 -
22.03.2019 08:00:00 11,0 11,0 2 1 ESE 10 -
22.03.2019 07:00:00 8,4 8,3 2 1 SSW 10 -
22.03.2019 06:00:00 8,0 8,0 8 4 S 10 -
22.03.2019 05:00:00 9,0 8,0 5 3 NNW 10 -
22.03.2019 04:00:00 9,0 8,0 8 4 N 10 -
22.03.2019 03:00:00 9,0 7,0 8 4 WNW 10 -
22.03.2019 02:00:00 11,0 9,0 8 4 SSW 10 -
22.03.2019 01:00:00 11,0 9,0 11 6 S 10 -
22.03.2019 00:00:00 11,0 9,0 9 5 SSW 10 -
21.03.2019 23:00:00 11,0 9,0 11 6 S 10 -
21.03.2019 22:00:00 11,0 9,0 11 6 SSW 10 -
21.03.2019 21:00:00 12,0 8,0 - - - 1,9 -
21.03.2019 20:00:00 12,0 8,0 9 5 S 10 -
21.03.2019 19:00:00 13,1 8,4 5 3 WSW 10 0,0
21.03.2019 18:00:00 15,0 8,0 5 3 SSE 10 -
21.03.2019 17:00:00 15,0 9,0 13 7 S 10 -
21.03.2019 16:00:00 16,0 8,0 5 3 W 10 -
21.03.2019 15:00:00 15,0 8,0 8 4 NW 10 -
21.03.2019 14:00:00 18,0 9,0 13 7 S 10 -
21.03.2019 13:00:00 18,0 9,0 13 7 S 10 -
21.03.2019 12:00:00 17,0 9,0 15 8 S 10 -
21.03.2019 11:00:00 16,0 9,0 15 8 SSE 10 -
21.03.2019 10:00:00 13,8 8,0 9 5 S 10 -
21.03.2019 09:00:00 13,0 9,0 11 6 S 10 -
21.03.2019 08:00:00 13,0 11,0 8 4 SE 10 -
21.03.2019 07:00:00 11,0 10,0 5 3 W 10 -
21.03.2019 06:00:00 12,0 11,0 8 4 ESE 10 -
21.03.2019 05:00:00 12,0 11,0 4 2 W 10 -
21.03.2019 04:00:00 12,0 11,0 4 2 ENE 10 -
21.03.2019 03:00:00 12,0 11,0 5 3 SSW 10 -
21.03.2019 02:00:00 12,0 11,0 5 3 SW 10 -
21.03.2019 01:00:00 12,0 11,0 5 3 W 10 -
21.03.2019 00:00:00 12,0 11,0 8 4 SSW 10 -
20.03.2019 23:00:00 12,0 11,0 5 3 SW 10 -
20.03.2019 22:00:00 12,0 11,0 11 6 S 10 -
20.03.2019 21:00:00 13,0 12,0 4 2 WSW 10 -
20.03.2019 20:00:00 13,0 11,0 4 2 SSE 10 -
20.03.2019 19:00:00 14,2 11,9 2 1 NE 10 -
20.03.2019 18:00:00 15,0 12,0 2 1 WSW 10 -
20.03.2019 17:00:00 15,0 12,0 5 3 S 10 -
20.03.2019 16:00:00 12,0 10,0 8 4 NE 10 -
20.03.2019 15:00:00 11,0 10,0 9 5 E 10 -
20.03.2019 14:00:00 18,0 7,0 5 3 NE 10 -
20.03.2019 13:00:00 17,0 8,0 5 3 S 10 -
20.03.2019 12:00:00 16,0 8,0 9 5 ESE 10 -
20.03.2019 11:00:00 16,0 8,0 4 2 SSW 10 -
20.03.2019 10:00:00 14,0 8,0 5 3 N 10 -
20.03.2019 09:00:00 12,0 8,0 4 2 N 10 -
20.03.2019 08:00:00 10,0 9,0 2 1 N 10 -
20.03.2019 07:00:00 8,0 8,0 2 1 W 10 -
20.03.2019 06:00:00 8,0 8,0 4 2 N 10 -
20.03.2019 05:00:00 9,0 8,0 2 1 N 10 -
20.03.2019 04:00:00 9,0 8,0 4 2 NW 10 -
20.03.2019 03:00:00 9,0 8,0 5 3 N 10 -
20.03.2019 02:00:00 9,0 8,0 4 2 N 10 -
20.03.2019 01:00:00 9,0 8,0 2 1 NE 10 -
20.03.2019 00:00:00 9,0 8,0 2 1 NW 10 -
19.03.2019 23:00:00 9,0 9,0 4 2 WNW 10 -
19.03.2019 22:00:00 10,0 9,0 4 2 E 10 -
19.03.2019 21:00:00 10,0 9,0 4 2 SSE 10 -
19.03.2019 20:00:00 10,0 9,0 4 2 NW 10 -
19.03.2019 19:00:00 10,0 8,0 4 2 N 10 -
19.03.2019 18:00:00 10,0 9,0 4 2 WNW 6 -
19.03.2019 17:00:00 11,0 9,0 8 4 SSE 8 -
19.03.2019 16:00:00 12,0 9,0 11 6 E 10 -
19.03.2019 15:00:00 13,0 8,0 13 7 NNW 10 -
19.03.2019 14:00:00 16,0 7,0 11 6 ESE 10 -
19.03.2019 13:00:00 16,0 8,0 9 5 SE 10 -
19.03.2019 12:00:00 16,0 7,0 5 3 NE 10 -
19.03.2019 11:00:00 14,0 8,0 4 2 NE 10 -
19.03.2019 10:00:00 12,4 8,9 9 5 S 10 -
19.03.2019 09:00:00 11,0 9,0 9 5 S 10 -
19.03.2019 08:00:00 10,0 9,0 4 2 S 10 -
19.03.2019 07:00:00 9,0 9,0 4 2 NW 8 -
19.03.2019 06:00:00 9,0 9,0 2 1 W 8 -
19.03.2019 05:00:00 8,0 7,0 4 2 SSW 10 -
19.03.2019 04:00:00 9,0 8,0 5 3 W 10 -
19.03.2019 03:00:00 9,0 8,0 11 6 N 10 -
19.03.2019 02:00:00 9,0 8,0 8 4 N 10 -
19.03.2019 01:00:00 9,0 8,0 5 3 N 10 -
19.03.2019 00:00:00 10,0 8,0 5 3 S 10 -
18.03.2019 23:00:00 10,0 8,0 9 5 S 10 -
18.03.2019 22:00:00 10,0 8,0 8 4 SSW 10 -
18.03.2019 21:00:00 11,0 8,0 8 4 SSW 10 -
18.03.2019 20:00:00 9,0 8,0 5 3 N 10 -
18.03.2019 19:00:00 11,0 9,0 5 3 NNW 10 -
18.03.2019 18:00:00 13,0 9,0 11 6 ENE 10 -
18.03.2019 17:00:00 16,0 9,0 9 5 SSW 10 -
18.03.2019 16:00:00 16,5 10,8 11 6 SSW 10 -
18.03.2019 15:00:00 13,0 10,0 9 5 WSW 10 -
18.03.2019 14:00:00 14,0 9,0 18 10 S 10 -
18.03.2019 13:00:00 18,0 9,0 24 13 S 10 -
18.03.2019 12:00:00 16,0 8,0 16 9 S 10 -
18.03.2019 11:00:00 14,0 8,0 13 7 SE 10 -
18.03.2019 10:00:00 13,0 8,0 9 5 SSE 10 -
18.03.2019 09:00:00 12,0 8,0 5 3 SE 10 -
18.03.2019 08:00:00 10,0 8,0 4 2 SSE 10 -
18.03.2019 07:00:00 9,0 7,0 4 2 NW 10 -
18.03.2019 06:00:00 7,0 7,0 4 2 NNE 10 -
18.03.2019 05:00:00 8,0 7,0 4 2 S 10 -
18.03.2019 04:00:00 9,0 8,0 4 2 SSE 10 -
18.03.2019 03:00:00 9,0 8,0 9 5 S 10 -
18.03.2019 02:00:00 - - - - - - -
18.03.2019 01:00:00 9,0 8,0 8 4 WSW 10 -
18.03.2019 00:00:00 10,0 7,0 8 4 S 10 -
17.03.2019 23:00:00 10,0 7,0 9 5 SSW 10 -
17.03.2019 22:00:00 11,0 7,0 15 8 S 10 -
17.03.2019 21:00:00 11,0 7,0 13 7 S 10 -
17.03.2019 20:00:00 12,0 7,0 8 4 S 10 -
17.03.2019 19:00:00 12,0 7,0 13 7 S 10 -
17.03.2019 18:00:00 12,0 7,0 18 10 S 10 -
17.03.2019 17:00:00 13,0 8,0 24 13 S 10 -
17.03.2019 16:00:00 14,3 8,5 28 15 S 10 -
17.03.2019 15:00:00 15,0 9,0 31 17 S 10 -
17.03.2019 14:00:00 17,0 7,0 29 16 S 10 -
17.03.2019 13:00:00 16,9 9,1 22 12 S 10 -
17.03.2019 12:00:00 17,0 10,0 9 5 S 10 -
17.03.2019 11:00:00 15,0 8,0 13 7 SSE 10 -
17.03.2019 10:00:00 13,0 8,0 13 7 SSE 10 -
17.03.2019 09:00:00 11,0 8,0 11 6 S 10 -
17.03.2019 08:00:00 10,0 9,0 9 5 S 10 -
17.03.2019 07:00:00 9,7 8,3 11 6 S 10 0,0
17.03.2019 06:00:00 9,0 7,0 4 2 ESE 10 -
17.03.2019 05:00:00 9,0 8,0 5 3 SW 10 -
17.03.2019 04:00:00 9,0 8,0 4 2 SSW 10 -

tt = temperature
td = dewpoint
ff = wind speed
dd = wind direction
vv = visibility
rr = precipitation

Next stations